Brookings, OR

03:53 AM PDT am 01. November 2014 (GMT -0700)
Brookings | Change Station
CLOSE
Current Station
Flughafen
Location: Brookings,
Höhe: 459 ft
Wetterstationen in der Umgebung

Höhe 459 ft 42.07 °N, 124.29 °W | Updated 23 hours ago

Heiter
Heiter
50 °F
gefühlte 50 °F
N
6
Wind Wechselnd Wind aus Nord-Nordost
Gusts 9 mph

Heute
Max. -- | schwach -- °F
--% Regenrisiko
Gestern
Max. -- | schwach -- °F
Precip. -- inch
7:50 AM 6:10 PM
Zweites Viertel, 65% visible
Druck 29.82 inch
Sichtweite 8.0 Meilen
Wolken Few 300 ft
Teils Wolkig 1000 ft
Wolkig 3300 ft
Taupunkt 46 °F
Feuchtigkeit 88%
Regen 0.03 inch
Schneehöhe Nicht verfügbar..
UV 0 von 12
Pollen .40 von 12
Luftqualität Nicht verfügbar..
Flu Activity Nicht verfügbar..
METAR KBOK 311109Z AUTO 00000KT 8SM -RA FEW003 SCT010 BKN033 11/11 A2982 RMK AO2 BKN V SCT P0001

More Conditions Fewer Conditions

Druck 29.82 inch
Sichtweite 8.0 Meilen
Wolken Few 300 ft
Teils Wolkig 1000 ft
Wolkig 3300 ft
Taupunkt 46 °F
Feuchtigkeit 88%
Regen 0.03 inch
Schneehöhe Nicht verfügbar..
UV 0 von 12
Pollen .40 von 12
Luftqualität Nicht verfügbar..
Flu Activity Nicht verfügbar..
METAR KBOK 311109Z AUTO 00000KT 8SM -RA FEW003 SCT010 BKN033 11/11 A2982 RMK AO2 BKN V SCT P0001

More Conditions Fewer Conditions

10-Day Weather Forecast

Almanac

Astronomie

Nov. 01, 2014 Aufgang Untergang
Genaue Zeit
Bürgerliche Dämmerung
Nautische Dämmerung
Astronomische Dämmerung
Mond
Länge des sichtbaren Lichts
Tageslänge
Tomorrow will be .
, % of the Moon is Illuminated

Heutige Rekorde

State Highs State Lows

Community

WunderPhotos

Upload Photos

1,766,875 Fotos hochgeladen!

WunderBlogs® & News

Nearby

Luftqualität

  Luftqualität LQ Index Schadstoff
Not available.

Schneehöhe

Station Depth Höhe

Erdbebenaktivität

Stadt Distance Mag. Time & Date
Minimum magnitude displayed is 2.5.

küstennahe Wassertemperaturen

Ort Temperatur

Wetterstationen in der Umgebung